Terminal Aerodrome Forecast
Issued by NWS

Home | Current Version | Previous Version | Text Only | Print | Product List | Glossary On
Versions: 1 2 3 4 5 6 7 8 9 10 11 12 13 14 15
000
FTUS45 KGJT 260544
TAFEGE
TAF
KEGE 260544Z 2606/2706 VRB03KT P6SM VCSH SCT040 OVC060
      TEMPO 2606/2610 24010G18KT P6SM -RA BKN040
     FM261200 VRB04KT P6SM BKN070
     FM261800 22020G30KT P6SM BKN100
     FM270100 25012G20KT P6SM BKN100
     FM270400 16008KT P6SM BKN100
      AMD LTD TO CLD VIS AND WIND TIL 261300=

USA.gov is the U.S. government's official web portal to all federal, state and local government web resources and services.